ADDS METAR Data INFO
IDs: Format: Raw Decoded Include TAF

Data at: 2355 UTC 24 Feb 2018

KWRL 242253Z AUTO 11010KT 10SM CLR M03/M12 A2973 RMK AO2 SLP142 T10281117
KWRL 242153Z AUTO 12011KT 10SM CLR M03/M12 A2973 RMK AO2 SLP137 T10281122
KWRL 242053Z AUTO 13010KT 10SM CLR M02/M13 A2973 RMK AO2 SNB1959E10 SLP143 P0000 60000 T10221128 58024
KWRL 241953Z AUTO 00000KT 10SM CLR M04/M13 A2977 RMK AO2 SNE01 SLP154 P0000 T10441128
KWRL 241853Z AUTO 25005KT 10SM -SN CLR M10/M14 A2980 RMK AO2 SNB52 SLP176 P0000 T11001139
KWRL 241753Z AUTO 00000KT 10SM CLR M11/M16 A2982 RMK AO2 SLP179 T11111156 11111 21239 58007
KWRL 241653Z AUTO 35004KT 10SM CLR M14/M16 A2983 RMK AO2 SLP187 T11391156
KWRL 241553Z AUTO 19005KT 10SM OVC080 M16/M16 A2984 RMK AO2 SLP188 T11561161
KWRL 241453Z AUTO 18006KT 10SM OVC080 M19/M21 A2984 RMK AO2 SLP194 T11891211 53004
KWRL 241353Z AUTO 00000KT 10SM SCT110 M22/M24 A2982 RMK AO2 SLP196 T12221239
KWRL 241253Z AUTO 11005KT 10SM OVC085 M20/M22 A2981 RMK AO2 SLP180 T12001222
KWRL 241153Z AUTO VRB04KT 10SM CLR M22/M24 A2982 RMK AO2 SLP183 T12221239 11183 21244 55007
KWRL 241053Z AUTO 00000KT 10SM CLR M24/M26 A2982 RMK AO2 SLP186 T12391256
KWRL 240953Z AUTO 19004KT 10SM CLR M21/M22 A2982 RMK AO2 SLP178 T12061222
KWRL 240853Z AUTO VRB03KT 10SM CLR M23/M26 A2985 RMK AO2 SLP196 T12331256 56015
KWRL 240753Z AUTO 00000KT 10SM CLR M22/M23 A2986 RMK AO2 SLP197 T12171228
KWRL 240653Z AUTO 00000KT 10SM CLR M21/M23 A2988 RMK AO2 SLP206 T12111228 410611256
KWRL 240553Z AUTO 00000KT 10SM CLR M19/M21 A2990 RMK AO2 SLP217 T11891206 11072 21194 58011
KWRL 240453Z AUTO 00000KT 10SM CLR M18/M19 A2991 RMK AO2 SLP228 T11781194
KWRL 240353Z AUTO 00000KT 10SM CLR M14/M16 A2993 RMK AO2 SLP231 T11441161
KWRL 240253Z AUTO 00000KT 10SM CLR M15/M18 A2993 RMK AO2 SLP241 T11501178 58007
KWRL 240153Z AUTO 17007KT 10SM CLR M15/M18 A2995 RMK AO2 SLP238 T11501178
KWRL 240053Z AUTO 00000KT 10SM CLR M11/M16 A2995 RMK AO2 SLP235 T11111161
KWRL 232353Z AUTO 00000KT 10SM CLR M08/M16 A2996 RMK AO2 SLP230 60000 T10781156 11061 21161 56013
KWRL 232253Z AUTO 07003KT 10SM CLR M08/M15 A2997 RMK AO2 SLP234 T10831150
KWRL 232153Z AUTO 00000KT 10SM CLR M08/M16 A2999 RMK AO2 SNB21E30 SLP239 P0000 T10781156
KWRL 232053Z AUTO 00000KT 10SM CLR M09/M16 A3000 RMK AO2 SLP244 60000 T10891161 58025
KWRL 231953Z AUTO 00000KT 10SM CLR M10/M17 A3004 RMK AO2 SNB19E33 SLP261 P0000 T11001167
KWRL 231853Z AUTO 00000KT 10SM CLR M12/M17 A3007 RMK AO2 SLP274 T11171167
KWRL 231753Z AUTO 22005KT 10SM CLR M16/M19 A3009 RMK AO2 SLP286 T11611189 11161 21256 58007
KWRL 231653Z AUTO 00000KT 10SM CLR M21/M22 A3010 RMK AO2 SLP299 T12061222
KWRL 231553Z AUTO 00000KT 10SM CLR M21/M23 A3011 RMK AO2 SLP303 T12111228
KWRL 231453Z AUTO 00000KT 10SM CLR M25/M27 A3011 RMK AO2 SLP308 T12501267 53005
KWRL 231353Z AUTO 18006KT 10SM CLR M22/M24 A3010 RMK AO2 SLP299 T12221244
KWRL 231253Z AUTO 00000KT 10SM CLR M24/M25 A3009 RMK AO2 SLP296 T12391250